Curionopolis, Brazil
Current Conditions -  °F | °C
As of 12:40 AM on Wednesday 28 Jan 2015 (Local Time) from SBCJ Reporting Station
Clear Clear  
Wind Chill: 70°   Ceiling: Unl
Heat Index: 70°   Visibility: 6mi
Dew Point: 68°   Wind: 0mph
Humidity: 94%   Direction: NA
Pressure: 29.97"   Gusts: NA
Location:  6.1°S, 49.6°W
Report Text: SBCJ 280340Z 00000KT CAVOK 21/20 Q1015
Loading
Personal Weather Stations






























Interactive Weather Map New forecast layout! Learn more

10-Day Weather Forecast

Advertisements
Track Severe Weather on mobile